createdAt,value
2023-04-23T00:03:10.460Z,19.50
2023-04-23T00:08:14.375Z,19.53
2023-04-23T00:13:17.513Z,19.51
2023-04-23T00:18:21.617Z,19.41
2023-04-23T00:23:24.342Z,19.38
2023-04-23T00:28:27.130Z,19.33
2023-04-23T00:33:31.547Z,19.13
2023-04-23T00:38:34.281Z,19.16
2023-04-23T00:43:37.518Z,19.13
2023-04-23T00:48:42.839Z,18.92
2023-04-23T00:53:45.584Z,19.00
2023-04-23T00:58:48.485Z,18.77
2023-04-23T01:03:54.352Z,18.63
2023-04-23T01:08:57.367Z,18.89
2023-04-23T01:14:00.457Z,18.25
2023-04-23T01:19:05.659Z,18.65
2023-04-23T01:24:10.971Z,18.98
2023-04-23T01:29:14.865Z,18.33
2023-04-23T01:34:18.279Z,18.63
2023-04-23T01:39:22.527Z,18.43
2023-04-23T01:44:26.233Z,18.92
2023-04-23T01:49:29.113Z,18.57
2023-04-23T01:54:33.234Z,17.65
2023-04-23T01:59:36.467Z,17.10
2023-04-23T02:04:40.406Z,16.36
2023-04-23T02:09:44.611Z,16.38
2023-04-23T02:14:47.359Z,16.12
2023-04-23T02:19:50.506Z,15.86
2023-04-23T02:24:55.496Z,15.76
2023-04-23T02:30:00.246Z,15.63
2023-04-23T02:35:03.502Z,15.34
2023-04-23T02:40:09.137Z,15.67
2023-04-23T02:45:12.483Z,15.17
2023-04-23T02:50:15.264Z,15.08
2023-04-23T02:55:19.559Z,14.59
2023-04-23T03:00:22.633Z,14.65
2023-04-23T03:05:25.567Z,14.34
2023-04-23T03:10:30.055Z,14.49
2023-04-23T03:15:32.806Z,14.49
2023-04-23T03:20:35.747Z,14.59
2023-04-23T03:25:40.050Z,14.28
2023-04-23T03:30:43.293Z,13.66
2023-04-23T03:35:46.316Z,14.13
2023-04-23T03:40:55.957Z,13.93
2023-04-23T03:45:59.329Z,13.82
2023-04-23T03:51:03.196Z,13.63
2023-04-23T03:56:19.362Z,13.67
2023-04-23T04:01:32.588Z,13.66
2023-04-23T04:06:35.508Z,13.84
2023-04-23T04:11:39.565Z,14.06
2023-04-23T04:16:42.378Z,13.83
2023-04-23T04:21:45.151Z,14.13
2023-04-23T04:26:50.417Z,13.82
2023-04-23T04:31:53.279Z,14.21
2023-04-23T04:36:56.062Z,13.94
2023-04-23T04:42:02.896Z,14.00
2023-04-23T04:47:06.650Z,14.04
2023-04-23T04:52:09.599Z,13.72
2023-04-23T04:57:13.762Z,13.58
2023-04-23T05:02:16.843Z,13.58
2023-04-23T05:07:19.743Z,13.49
2023-04-23T05:12:23.869Z,13.83
2023-04-23T05:17:26.765Z,14.46
2023-04-23T05:22:29.777Z,14.06
2023-04-23T05:27:33.860Z,13.48
2023-04-23T05:32:36.780Z,13.23
2023-04-23T05:37:39.754Z,13.44
2023-04-23T05:42:43.873Z,14.75
2023-04-23T05:47:48.647Z,14.06
2023-04-23T05:52:51.394Z,14.46
2023-04-23T05:57:55.557Z,14.43
2023-04-23T06:02:58.500Z,13.93
2023-04-23T06:08:01.357Z,14.36
2023-04-23T06:13:05.885Z,14.30
2023-04-23T06:18:10.373Z,13.96
2023-04-23T06:23:14.000Z,15.12
2023-04-23T06:28:18.095Z,15.22
2023-04-23T06:33:40.977Z,15.93
2023-04-23T06:38:44.611Z,15.71
2023-04-23T06:43:49.063Z,15.75
2023-04-23T06:49:06.839Z,15.14
2023-04-23T06:54:09.948Z,15.96
2023-04-23T06:59:14.100Z,15.92
2023-04-23T07:04:23.150Z,15.69
2023-04-23T07:09:26.229Z,16.61
2023-04-23T07:14:30.400Z,15.63
2023-04-23T07:19:33.184Z,16.28
2023-04-23T07:24:36.246Z,16.23
2023-04-23T07:29:40.483Z,17.27
2023-04-23T07:34:43.975Z,17.44
2023-04-23T07:39:47.536Z,18.21
2023-04-23T07:44:51.906Z,17.66
2023-04-23T07:49:54.658Z,17.03
2023-04-23T07:54:57.455Z,17.08
2023-04-23T08:00:01.556Z,18.02
2023-04-23T08:05:14.877Z,18.87
2023-04-23T08:10:17.876Z,17.77
2023-04-23T08:15:22.066Z,18.24
2023-04-23T08:20:24.860Z,18.55
2023-04-23T08:25:27.710Z,18.02
2023-04-23T08:30:31.885Z,18.34
2023-04-23T08:35:34.678Z,17.72
2023-04-23T08:40:38.669Z,17.95
2023-04-23T08:45:47.531Z,18.38
2023-04-23T08:50:50.844Z,18.66
2023-04-23T08:55:53.822Z,18.09
2023-04-23T09:00:59.746Z,20.54
2023-04-23T09:06:03.048Z,20.39
2023-04-23T09:11:07.098Z,21.12
2023-04-23T09:16:11.664Z,21.59
2023-04-23T09:21:15.207Z,21.65
2023-04-23T09:26:22.127Z,21.83
2023-04-23T09:31:26.460Z,20.42
2023-04-23T09:36:29.671Z,21.03
2023-04-23T09:41:32.411Z,21.02
2023-04-23T09:46:38.567Z,19.40
2023-04-23T09:51:42.587Z,19.56
2023-04-23T09:56:51.276Z,20.00
2023-04-23T10:01:55.973Z,20.12
2023-04-23T10:07:17.361Z,19.70
2023-04-23T10:12:40.973Z,19.81
2023-04-23T10:17:48.199Z,20.49
2023-04-23T10:22:53.307Z,19.62
2023-04-23T10:27:56.945Z,21.02
2023-04-23T10:33:02.872Z,20.75
2023-04-23T10:38:06.173Z,20.87
2023-04-23T10:43:09.039Z,21.31
2023-04-23T10:48:13.093Z,20.77
2023-04-23T10:53:22.406Z,21.37
2023-04-23T10:58:25.232Z,21.98
2023-04-23T11:03:43.379Z,21.01
2023-04-23T11:08:52.756Z,19.76
2023-04-23T11:13:55.288Z,21.01
2023-04-23T11:19:05.294Z,21.59
2023-04-23T11:24:08.484Z,21.12
2023-04-23T11:29:15.552Z,21.65
2023-04-23T11:34:19.702Z,21.98
2023-04-23T11:39:24.680Z,21.98
2023-04-23T11:44:28.133Z,21.43
2023-04-23T11:49:32.430Z,22.51
2023-04-23T11:54:36.964Z,22.09
2023-04-23T11:59:39.980Z,22.61
2023-04-23T12:04:45.049Z,22.77
2023-04-23T12:09:47.769Z,22.35
2023-04-23T12:14:50.661Z,22.29
2023-04-23T12:19:56.206Z,23.61
2023-04-23T12:25:00.193Z,22.61
2023-04-23T12:30:06.369Z,23.14
2023-04-23T12:35:12.247Z,23.17
2023-04-23T12:40:15.132Z,23.23
2023-04-23T12:45:17.886Z,23.48
2023-04-23T12:50:22.038Z,23.66
2023-04-23T12:55:24.989Z,23.62
2023-04-23T13:00:28.054Z,24.06
2023-04-23T13:05:32.336Z,24.58
2023-04-23T13:10:35.158Z,24.31
2023-04-23T13:15:38.009Z,23.83
2023-04-23T13:20:43.135Z,23.05
2023-04-23T13:25:45.927Z,23.51
2023-04-23T13:30:48.883Z,23.08
2023-04-23T13:35:54.530Z,23.52
2023-04-23T13:40:57.484Z,24.85
2023-04-23T13:46:01.194Z,24.25
2023-04-23T13:51:11.404Z,25.29
2023-04-23T13:56:16.539Z,23.94
2023-04-23T14:01:19.345Z,23.35
2023-04-23T14:06:23.656Z,23.88
2023-04-23T14:11:26.477Z,24.50
2023-04-23T14:16:29.380Z,24.25
2023-04-23T14:21:33.738Z,23.45
2023-04-23T14:26:48.154Z,20.85
2023-04-23T14:31:52.615Z,18.66
2023-04-23T14:36:56.960Z,18.34
2023-04-23T14:41:59.735Z,18.50
2023-04-23T14:47:02.496Z,18.82
2023-04-23T14:52:06.738Z,20.05
2023-04-23T14:57:09.523Z,20.92
2023-04-23T15:02:12.585Z,20.11
2023-04-23T15:07:16.767Z,20.74
2023-04-23T15:12:42.755Z,20.66
2023-04-23T15:17:45.606Z,20.69
2023-04-23T15:22:49.925Z,20.94
2023-04-23T15:27:57.798Z,20.82
2023-04-23T15:33:00.654Z,20.71
2023-04-23T15:38:05.056Z,20.53
2023-04-23T15:43:07.816Z,20.30
2023-04-23T15:48:11.064Z,20.59
2023-04-23T15:53:16.315Z,20.65
2023-04-23T15:58:19.701Z,21.18
2023-04-23T16:03:22.711Z,20.81
2023-04-23T16:08:26.857Z,20.95
2023-04-23T16:13:29.899Z,20.94
2023-04-23T16:18:32.730Z,20.57
2023-04-23T16:23:37.033Z,19.81
2023-04-23T16:28:39.764Z,18.81
2023-04-23T16:33:42.529Z,18.19
2023-04-23T16:38:49.487Z,18.47
2023-04-23T16:43:52.431Z,18.69
2023-04-23T16:48:55.182Z,19.01
2023-04-23T16:53:59.492Z,19.04
2023-04-23T16:59:02.257Z,18.74
2023-04-23T17:04:05.305Z,18.66
2023-04-23T17:09:10.363Z,18.58
2023-04-23T17:14:13.264Z,18.83
2023-04-23T17:19:16.113Z,19.06
2023-04-23T17:24:20.379Z,18.89
2023-04-23T17:29:23.184Z,18.82
2023-04-23T17:34:26.036Z,19.16
2023-04-23T17:39:30.177Z,19.18
2023-04-23T17:44:33.066Z,19.27
2023-04-23T17:49:36.060Z,18.70
2023-04-23T17:54:40.876Z,18.86
2023-04-23T17:59:43.987Z,18.97
2023-04-23T18:04:47.011Z,18.83
2023-04-23T18:09:51.173Z,18.55
2023-04-23T18:14:54.626Z,18.51
2023-04-23T18:19:57.561Z,18.53
2023-04-23T18:25:01.772Z,18.44
2023-04-23T18:30:05.665Z,18.27
2023-04-23T18:35:09.347Z,18.16
2023-04-23T18:40:13.589Z,18.15
2023-04-23T18:45:19.082Z,18.00
2023-04-23T18:50:36.917Z,17.96
2023-04-23T18:55:41.085Z,18.00
2023-04-23T19:00:43.905Z,17.85
2023-04-23T19:05:47.072Z,17.87
2023-04-23T19:10:51.255Z,17.64
2023-04-23T19:15:54.208Z,17.54
2023-04-23T19:20:58.168Z,17.67
2023-04-23T19:26:03.203Z,17.43
2023-04-23T19:31:06.166Z,17.48
2023-04-23T19:36:09.034Z,17.20
2023-04-23T19:41:13.204Z,17.00
2023-04-23T19:46:15.974Z,17.24
2023-04-23T19:51:20.664Z,17.38
2023-04-23T19:56:25.116Z,17.38
2023-04-23T20:01:30.084Z,17.35
2023-04-23T20:06:33.081Z,17.31
2023-04-23T20:11:37.522Z,17.11
2023-04-23T20:16:40.841Z,16.76
2023-04-23T20:21:45.635Z,16.93
2023-04-23T20:26:50.810Z,16.74
2023-04-23T20:31:53.706Z,16.71
2023-04-23T20:36:58.714Z,16.79
2023-04-23T20:42:02.876Z,16.98
2023-04-23T20:47:08.414Z,17.01
2023-04-23T20:52:12.306Z,16.96
2023-04-23T20:57:16.372Z,16.87
2023-04-23T21:02:19.302Z,16.89
2023-04-23T21:12:26.324Z,17.02
2023-04-23T21:17:29.155Z,16.94
2023-04-23T21:22:32.444Z,16.68
2023-04-23T21:27:36.848Z,16.72
2023-04-23T21:32:39.718Z,16.58
2023-04-23T21:37:42.434Z,16.86
2023-04-23T21:42:47.622Z,17.50
2023-04-23T21:47:51.004Z,17.77
2023-04-23T21:52:55.977Z,17.47
2023-04-23T21:58:13.880Z,17.50
2023-04-23T22:03:30.900Z,17.55
2023-04-23T22:08:41.822Z,17.27
2023-04-23T22:13:46.009Z,17.48
2023-04-23T22:18:49.198Z,17.40
2023-04-23T22:23:51.957Z,16.52
2023-04-23T22:28:56.350Z,17.20
2023-04-23T22:33:59.130Z,17.43
2023-04-23T22:39:02.291Z,17.33
2023-04-23T22:44:06.482Z,17.34
2023-04-23T22:49:11.074Z,17.21
2023-04-23T22:54:13.809Z,17.33
2023-04-23T22:59:17.892Z,17.22
2023-04-23T23:04:21.145Z,16.88
2023-04-23T23:09:24.031Z,16.89
2023-04-23T23:14:28.929Z,16.85
2023-04-23T23:19:31.900Z,16.74
2023-04-23T23:24:34.741Z,16.92
2023-04-23T23:29:38.877Z,16.80
2023-04-23T23:34:41.660Z,16.61
2023-04-23T23:39:44.667Z,16.62
2023-04-23T23:44:48.829Z,16.74
2023-04-23T23:49:51.664Z,16.54
2023-04-23T23:54:54.346Z,16.60
2023-04-23T23:59:58.654Z,16.33
